気象予報士の航空気象 雨は雨でも

*All archives   *Admin

2010.04.28 (Wed)

雨は雨でも

RJTT 280300Z 32007KT 2800 SHRA BR FEW004 BKN006 BKN015 14/12 Q1014 RMK 1ST004 5ST006 6CU015 A2994


冷たい雨。


かなり降ってるよ。


すでに、お休み突入。


近所の貯水槽からぼこぼこ空気が噴出して、そのうえには水溜りができています。


よくわからん場所ですが、こんなニュースが目に留まりました。


科学的根拠もないし、この変の天気に詳しくないものにとって、これを見てびびるか、疑いの目を持つかは見た人の自由。


環境ビジネスってふざけた言葉がありますからね。



カナダ極北の北極圏で降雨、「異常な現象」と関係者
4月28日13時52分配信 ロイター


 [オタワ 27日 ロイター] カナダ極北の北極圏で先週末、雪ではなく降雨が記録されていたことが分かった。現地で活動する英国のチームが27日に明らかにした。

 雨が観測されたのは、首都オタワから北方約3900キロにあるエルフリングネース島の補給基地周辺。基地に滞在するペン・ハドー氏によると、雨は約3分間降り続き、同じころに約145キロ離れたカナダのキャンプ周辺でも雨が降ったという。

 極寒の地での降雨に、ハドー氏は「本当に驚いた。4月にこの場所で雨が降るのは異常な現象だと思う」とコメント。北極圏の気温上昇で、こうした体験が増えるとみる科学者もいるだろうと語った。

 北極圏の気温上昇は、ほかの地域に比べて3倍のスピードで進んでいるとされ、専門家は地球温暖化の原因といわれる温室効果ガスとの関連が指摘されている。


 
ブログランキングに参加しています。
にほんブログ村 環境ブログ 天気・気象学へ
にほんブログ村
応援クリックをおねがします。


以下、アフィリエイトサイトです。



スポンサーサイト
17:05  |  時事  |  TB(0)  |  CM(0)  |  EDIT  |  Top↑

コメントを投稿する


 管理者だけに表示  (非公開コメント投稿可能)

▲PageTop

この記事のトラックバックURL

→http://weathereucalyptus.blog115.fc2.com/tb.php/469-0763c44b
この記事にトラックバックする(FC2ブログユーザー)

この記事へのトラックバック

▲PageTop

 | BLOGTOP |